Todos os bairrosBuscar neste bairro
Cristo Redentor
2.289 vendas · 2020–2026
Transações
2.289
Mediana R$/m²
4.938/m²
-13% em 2025 vs 2024
Valor mediano
R$ 336.000
Área média
68,2 m²
Mediana R$/m² por ano
Cristo Redentor e IPCA nacional · 2026 parcial
A linha pontilhada é o primeiro ano da série neste bairro, atualizado pelo IPCA nacional.
Benchmark por construção × tamanho
Mediana R$/m² (p50) por célula e número de transações
| Construção | S< 50 m² | M50–89 m² | L90–149 m² | XL≥ 150 m² |
|---|---|---|---|---|
| até 1969 | 3.457/m² 19 tx | 3.317/m² 131 tx | 3.076/m² 14 tx | — |
| 1970–89 | 3.974/m² 273 tx | 3.825/m² 438 tx | 3.321/m² 51 tx | 2.352/m² 5 tx |
| 1990–2009 | 4.291/m² 29 tx | 5.240/m² 288 tx | 4.738/m² 92 tx | 3.462/m² 42 tx |
| 2010–19 | 6.073/m² 14 tx | 6.067/m² 355 tx | 6.437/m² 39 tx | 4.852/m² 4 tx |
| 2020+ | 7.612/m² 56 tx | 7.647/m² 256 tx | 6.677/m² 25 tx | — |
Transações recentes
Últimas 30 vendas em Cristo Redentor, comparadas com o benchmark do bairro.
| Data | Endereço | Apto | Área | Base | R$/m² | vs p50 |
|---|---|---|---|---|---|---|
| 26/06/2026 | Rua ANTONIO JOAQUIM MESQUITA, 570 | 13032010–19 | 58,2 | R$ 455.000 | 7.823/m² | +29% |
| 25/06/2026 | Avenida DO FORTE, 386 | 2201990–2009 | 62,9 | R$ 230.000 | 3.658/m² | -30% |
| 23/06/2026 | Rua CARLOS SILVEIRA MARTINS PACHECO, 55 | 10011990–2009 | 70,3 | R$ 420.000 | 5.971/m² | +14% |
| 23/06/2026 | Avenida BERNARDI, 256 | 1011970–89 | 51,9 | R$ 225.000 | 4.333/m² | +13% |
| 23/06/2026 | Avenida DO FORTE, 650 | 4071970–89 | 48,8 | R$ 158.000 | 1.619/m² | -59% |
| 23/06/2026 | Rua ANTONIO JOAQUIM MESQUITA, 570 | 12312010–19 | 54,9 | R$ 440.000 | 8.019/m² | +32% |
| 23/06/2026 | Rua POTENGI, 24 | 4021970–89 | 129,5 | R$ 363.500 | 2.808/m² | -15% |
| 22/06/2026 | Rua LIMOEIRO, 135 | 7022010–19 | 75 | R$ 422.196 | 938/m² | -85% |
| 19/06/2026 | Avenida FRANCISCO TREIN, 368 | 311até 1969 | 58,4 | R$ 254.000 | 2.176/m² | -34% |
| 18/06/2026 | Avenida BERNARDI, 472 | 4041990–2009 | 135,2 | R$ 370.000 | 2.737/m² | -42% |
| 18/06/2026 | Rua ANTONIO JOAQUIM MESQUITA, 570 | 11242010–19 | 69,7 | R$ 418.300 | 6.001/m² | -1% |
| 17/06/2026 | Rua ANTONIO JOAQUIM MESQUITA, 570 | 11062010–19 | 54,8 | R$ 410.000 | 7.479/m² | +23% |
| 17/06/2026 | Rua ALBERTO SILVA, 53 | 8062020+ | 30,3 | R$ 345.000 | 11.382/m² | +50% |
| 17/06/2026 | Avenida DO FORTE, 650 | 2031970–89 | 46,2 | R$ 180.000 | 3.894/m² | -2% |
| 16/06/2026 | Rua AMARAGI, 62 | 2041990–2009 | 109 | R$ 480.000 | 4.406/m² | -7% |
| 16/06/2026 | Rua JAU, 175 | 2021970–89 | 119,9 | R$ 358.000 | 2.985/m² | -10% |
| 15/06/2026 | Travessa AMERICO SILVEIRA, 51 | 2051970–89 | 40,3 | R$ 192.000 | 4.769/m² | +20% |
| 12/06/2026 | Rua ALVARES CABRAL, 302 | 3021990–2009 | 76 | R$ 400.000 | 5.265/m² | +0% |
| 12/06/2026 | Avenida DO FORTE, 386 | 2201990–2009 | 62,9 | R$ 140.001 | 2.227/m² | -58% |
| 11/06/2026 | Rua LIMOEIRO, 135 | 12032010–19 | 75 | R$ 595.000 | 7.931/m² | +31% |
| 11/06/2026 | Rua ADAO BAINO, 225 | 3121970–89 | 61,9 | R$ 232.000 | 3.748/m² | -2% |
| 10/06/2026 | Avenida DO FORTE, 602 | 2151970–89 | 60,6 | R$ 190.000 | 3.137/m² | -18% |
| 10/06/2026 | Avenida ASSIS BRASIL, 2588 | 203até 1969 | 76,5 | R$ 360.000 | 4.708/m² | +42% |
| 08/06/2026 | Rua ADAO BAINO, 630 | 3021970–89 | 56,6 | R$ 200.000 | 3.533/m² | -8% |
| 01/06/2026 | Avenida FRANCISCO TREIN, 116 | 10012020+ | 67,5 | R$ 730.200 | 10.811/m² | +41% |
| 01/06/2026 | Rua ANTONIO JOAQUIM MESQUITA, 570 | 9112010–19 | 54,8 | R$ 390.000 | 7.114/m² | +17% |
| 29/05/2026 | Avenida FRANCISCO TREIN, 116 | 3042020+ | 56,3 | R$ 485.000 | 8.618/m² | +13% |
| 27/05/2026 | Rua DOM DIOGO DE SOUZA, 530 | 4051970–89 | 41,8 | R$ 180.000 | 4.304/m² | +8% |
| 26/05/2026 | Avenida BERNARDI, 256 | 3011970–89 | 63,7 | R$ 240.000 | 3.769/m² | -1% |
| 22/05/2026 | Rua DOM DIOGO DE SOUZA, 283 | 402Sem ano | 107,7 | R$ 420.000 | 3.902/m² | -32% |